Time;durP1;ratioP1;P1;durP2;ratioP2;P2;SDS_P1;SDS_P2;PMS_P1;PMS_P2;Temp;Humidity;BMP_temperature;BMP_pressure;BME280_temperature;BME280_humidity;BME280_pressure;Samples;Min_cycle;Max_cycle;Signal;HPM_P1;HPM_P2
2023/06/16 00:02:13;;;;;;;;;14.25;13.25;;;;;;;;5017030;28;51087;-54
2023/06/16 00:04:40;;;;;;;;;13.75;13.00;;;;;;;;5020875;28;51279;-55
2023/06/16 00:07:06;;;;;;;;;15.50;14.75;;;;;;;;5017085;28;51764;-55
2023/06/16 00:09:31;;;;;;;;;13.33;13.33;;;;;;;;5020512;28;51210;-54
2023/06/16 00:11:57;;;;;;;;;11.75;11.75;;;;;;;;5022277;28;51265;-55
2023/06/16 00:14:22;;;;;;;;;12.00;12.00;;;;;;;;5022128;28;51182;-55
2023/06/16 00:16:47;;;;;;;;;11.67;11.67;;;;;;;;5015607;28;51438;-56
2023/06/16 00:19:13;;;;;;;;;12.00;11.00;;;;;;;;5027109;28;51077;-54
2023/06/16 00:21:38;;;;;;;;;11.25;11.25;;;;;;;;5023915;28;51171;-54
2023/06/16 00:24:05;;;;;;;;;12.00;12.00;;;;;;;;5025923;28;51738;-55
2023/06/16 00:26:30;;;;;;;;;12.75;12.75;;;;;;;;5026052;28;51699;-55
2023/06/16 00:28:56;;;;;;;;;13.00;13.00;;;;;;;;5026939;28;51019;-54
2023/06/16 00:31:21;;;;;;;;;12.67;12.00;;;;;;;;5014218;28;51629;-54
2023/06/16 00:33:47;;;;;;;;;11.00;11.00;;;;;;;;5029316;28;51235;-54
2023/06/16 00:36:12;;;;;;;;;11.00;11.00;;;;;;;;5012739;28;54441;-54
2023/06/16 00:38:37;;;;;;;;;12.00;12.00;;;;;;;;5020962;28;51170;-55
2023/06/16 00:41:02;;;;;;;;;13.00;13.00;;;;;;;;5024368;28;51064;-55
2023/06/16 00:43:27;;;;;;;;;12.00;11.67;;;;;;;;5023221;28;51408;-54
2023/06/16 00:45:53;;;;;;;;;14.00;14.00;;;;;;;;5029605;28;52142;-54
2023/06/16 00:48:18;;;;;;;;;13.00;12.50;;;;;;;;5022894;28;51057;-55
2023/06/16 00:50:44;;;;;;;;;15.50;15.00;;;;;;;;5027721;28;51256;-55
2023/06/16 00:53:10;;;;;;;;;14.33;13.33;;;;;;;;5030704;28;52601;-54
2023/06/16 00:55:35;;;;;;;;;14.33;14.00;;;;;;;;5019920;28;52431;-55
2023/06/16 00:58:02;;;;;;;;;13.50;13.50;;;;;;;;5027186;28;50930;-54
2023/06/16 01:00:28;;;;;;;;;15.75;15.00;;;;;;;;5026800;28;51170;-58
2023/06/16 01:02:53;;;;;;;;;12.33;12.33;;;;;;;;5031373;28;51527;-55
2023/06/16 01:05:20;;;;;;;;;15.00;14.25;;;;;;;;5029804;28;51919;-55
2023/06/16 01:07:59;;;;;;;;;13.00;13.00;;;;;;;;5018662;28;51081;-56
2023/06/16 01:10:24;;;;;;;;;14.75;14.75;;;;;;;;5028851;28;50976;-54
2023/06/16 01:12:49;;;;;;;;;12.60;12.60;;;;;;;;5030217;28;51186;-53
2023/06/16 01:15:16;;;;;;;;;12.00;12.00;;;;;;;;5021581;28;51713;-55
2023/06/16 01:17:45;;;;;;;;;11.25;11.25;;;;;;;;5035820;28;50992;-53
2023/06/16 01:20:14;;;;;;;;;14.00;13.00;;;;;;;;5027634;28;51274;-54
2023/06/16 01:23:06;;;;;;;;;13.25;12.25;;;;;;;;5035130;28;51049;-56
2023/06/16 01:25:31;;;;;;;;;13.25;12.00;;;;;;;;5009983;28;52043;-55
2023/06/16 01:27:58;;;;;;;;;10.33;10.33;;;;;;;;5016506;28;51059;-55
2023/06/16 01:30:24;;;;;;;;;11.00;11.00;;;;;;;;5023857;28;51015;-56
2023/06/16 01:32:52;;;;;;;;;11.33;11.33;;;;;;;;5020793;28;51033;-55
2023/06/16 01:35:18;;;;;;;;;12.67;12.00;;;;;;;;5034903;28;51312;-55
2023/06/16 01:37:44;;;;;;;;;12.33;12.00;;;;;;;;5035567;28;51405;-55
2023/06/16 01:40:10;;;;;;;;;12.00;12.00;;;;;;;;5026013;28;51008;-55
2023/06/16 01:42:35;;;;;;;;;11.50;11.00;;;;;;;;5017565;28;51353;-54
2023/06/16 01:45:01;;;;;;;;;11.00;11.00;;;;;;;;5026396;28;51750;-55
2023/06/16 01:47:29;;;;;;;;;13.00;13.00;;;;;;;;5025511;28;51166;-55
2023/06/16 01:49:54;;;;;;;;;13.00;13.00;;;;;;;;5024104;28;51186;-56
2023/06/16 01:52:20;;;;;;;;;12.25;12.25;;;;;;;;5033253;28;51031;-56
2023/06/16 01:54:45;;;;;;;;;78.00;73.50;;;;;;;;5035479;28;51721;-56
2023/06/16 01:57:11;;;;;;;;;18.75;18.75;;;;;;;;5035438;28;50915;-56
2023/06/16 01:59:36;;;;;;;;;16.00;15.25;;;;;;;;5031380;28;51007;-56
2023/06/16 02:02:04;;;;;;;;;13.75;13.50;;;;;;;;5025115;28;51229;-55
2023/06/16 02:04:32;;;;;;;;;11.75;11.75;;;;;;;;5024506;28;52169;-56
2023/06/16 02:07:09;;;;;;;;;13.25;12.00;;;;;;;;5025808;28;51125;-55
2023/06/16 02:09:35;;;;;;;;;11.50;11.50;;;;;;;;5033557;28;51007;-54
2023/06/16 02:12:01;;;;;;;;;21.00;20.75;;;;;;;;5034130;28;51190;-54
2023/06/16 02:14:27;;;;;;;;;17.50;17.50;;;;;;;;5029321;28;51357;-54
2023/06/16 02:16:52;;;;;;;;;12.00;12.00;;;;;;;;5022480;28;50978;-54
2023/06/16 02:19:18;;;;;;;;;14.00;14.00;;;;;;;;5019362;28;51205;-54
2023/06/16 02:21:43;;;;;;;;;12.00;11.75;;;;;;;;5033690;28;50886;-55
2023/06/16 02:24:09;;;;;;;;;15.00;13.33;;;;;;;;5030553;28;50959;-55
2023/06/16 02:26:34;;;;;;;;;15.00;14.75;;;;;;;;5033926;28;50976;-55
2023/06/16 02:29:00;;;;;;;;;12.25;12.25;;;;;;;;5017251;28;50988;-55
2023/06/16 02:31:25;;;;;;;;;12.00;12.00;;;;;;;;5023460;28;51170;-56
2023/06/16 02:33:51;;;;;;;;;11.50;11.25;;;;;;;;5024011;28;51162;-55
2023/06/16 02:36:17;;;;;;;;;13.25;13.25;;;;;;;;5028093;28;51220;-56
2023/06/16 02:38:42;;;;;;;;;15.25;15.25;;;;;;;;5028098;28;51271;-56
2023/06/16 02:41:07;;;;;;;;;14.75;14.00;;;;;;;;5033995;28;51138;-56
2023/06/16 02:43:33;;;;;;;;;14.25;13.75;;;;;;;;5033766;28;51906;-56
2023/06/16 02:45:59;;;;;;;;;11.25;10.75;;;;;;;;5026754;28;51007;-56
2023/06/16 02:48:24;;;;;;;;;15.00;14.75;;;;;;;;5034923;28;51032;-55
2023/06/16 02:50:50;;;;;;;;;9.00;9.00;;;;;;;;5033685;28;51489;-55
2023/06/16 02:53:15;;;;;;;;;12.00;12.00;;;;;;;;5022746;28;51209;-56
2023/06/16 02:55:43;;;;;;;;;12.75;12.00;;;;;;;;5023287;28;51191;-55
2023/06/16 02:58:08;;;;;;;;;12.00;12.00;;;;;;;;5030639;28;51089;-55
2023/06/16 03:00:34;;;;;;;;;13.75;13.75;;;;;;;;5033621;28;50898;-55
2023/06/16 03:02:59;;;;;;;;;15.25;14.75;;;;;;;;5019841;28;52735;-56
2023/06/16 03:05:27;;;;;;;;;14.50;13.50;;;;;;;;5034467;28;51153;-55
2023/06/16 03:07:53;;;;;;;;;13.25;13.25;;;;;;;;5030278;28;50993;-61
2023/06/16 03:10:19;;;;;;;;;13.25;12.50;;;;;;;;5031805;28;50879;-56
2023/06/16 03:12:44;;;;;;;;;14.75;14.75;;;;;;;;5027552;28;52738;-55
2023/06/16 03:15:10;;;;;;;;;19.00;16.25;;;;;;;;5033499;28;51034;-55
2023/06/16 03:17:35;;;;;;;;;15.50;15.50;;;;;;;;5032837;28;51110;-56
2023/06/16 03:20:00;;;;;;;;;13.00;13.00;;;;;;;;5021545;28;51176;-55
2023/06/16 03:22:25;;;;;;;;;14.00;14.00;;;;;;;;5027197;28;51146;-56
2023/06/16 03:24:51;;;;;;;;;15.75;14.75;;;;;;;;5028323;28;51037;-56
2023/06/16 03:27:16;;;;;;;;;13.25;12.25;;;;;;;;5013798;28;50926;-55
2023/06/16 03:29:42;;;;;;;;;14.00;13.00;;;;;;;;5024365;28;51069;-56
2023/06/16 03:32:08;;;;;;;;;14.00;13.25;;;;;;;;5033107;28;51502;-55
2023/06/16 03:34:33;;;;;;;;;15.00;14.75;;;;;;;;5026046;28;50953;-55
2023/06/16 03:36:58;;;;;;;;;13.50;13.50;;;;;;;;5033907;28;51080;-55
2023/06/16 03:39:24;;;;;;;;;14.00;13.00;;;;;;;;5026333;28;50943;-55
2023/06/16 03:41:49;;;;;;;;;15.00;15.00;;;;;;;;5026929;28;51036;-55
2023/06/16 03:44:14;;;;;;;;;16.50;16.50;;;;;;;;5032944;28;50961;-55
2023/06/16 03:46:40;;;;;;;;;16.00;16.00;;;;;;;;5031656;28;51206;-55
2023/06/16 03:49:07;;;;;;;;;15.00;15.00;;;;;;;;5033300;28;51396;-56
2023/06/16 03:51:33;;;;;;;;;15.00;14.67;;;;;;;;5028878;28;52140;-56
2023/06/16 03:53:59;;;;;;;;;15.00;13.75;;;;;;;;5014416;28;51301;-56
2023/06/16 03:56:24;;;;;;;;;15.00;14.25;;;;;;;;5019413;28;51135;-56
2023/06/16 03:58:49;;;;;;;;;13.50;13.50;;;;;;;;5018556;28;51017;-56
2023/06/16 04:01:15;;;;;;;;;14.00;14.00;;;;;;;;5033076;28;52118;-55
2023/06/16 04:03:40;;;;;;;;;15.75;15.00;;;;;;;;5027325;28;51112;-56
2023/06/16 04:06:06;;;;;;;;;15.50;15.50;;;;;;;;5028566;28;51052;-55
2023/06/16 04:08:31;;;;;;;;;14.25;13.00;;;;;;;;5022270;28;50965;-56
2023/06/16 04:10:58;;;;;;;;;14.00;13.00;;;;;;;;5022455;28;52100;-57
2023/06/16 04:13:24;;;;;;;;;12.00;12.00;;;;;;;;5022009;28;51077;-56
2023/06/16 04:15:49;;;;;;;;;12.00;12.00;;;;;;;;5031710;28;50841;-56
2023/06/16 04:18:14;;;;;;;;;14.25;14.25;;;;;;;;5025538;28;51016;-56
2023/06/16 04:20:39;;;;;;;;;14.75;14.00;;;;;;;;5025391;28;51117;-57
2023/06/16 04:23:09;;;;;;;;;16.00;14.00;;;;;;;;5020482;28;51085;-56
2023/06/16 04:25:35;;;;;;;;;15.50;14.50;;;;;;;;5032348;28;51053;-56
2023/06/16 04:28:02;;;;;;;;;15.25;14.75;;;;;;;;5024322;28;52985;-55
2023/06/16 04:30:30;;;;;;;;;16.25;15.25;;;;;;;;5030796;28;53487;-56
2023/06/16 04:32:58;;;;;;;;;14.25;14.25;;;;;;;;5032935;28;51115;-55
2023/06/16 04:35:27;;;;;;;;;15.75;15.50;;;;;;;;5026513;28;51113;-56
2023/06/16 04:37:53;;;;;;;;;16.00;15.75;;;;;;;;5024861;28;51358;-56
2023/06/16 04:40:18;;;;;;;;;14.75;14.50;;;;;;;;5015738;28;51814;-56
2023/06/16 04:42:44;;;;;;;;;15.25;15.25;;;;;;;;5012992;28;50864;-56
2023/06/16 04:45:09;;;;;;;;;15.75;14.25;;;;;;;;5013753;28;50947;-56
2023/06/16 04:47:35;;;;;;;;;16.75;16.75;;;;;;;;5030675;28;50855;-56
2023/06/16 04:50:01;;;;;;;;;13.00;12.00;;;;;;;;5031085;28;52892;-56
2023/06/16 04:52:26;;;;;;;;;17.00;17.00;;;;;;;;5031351;28;51198;-56
2023/06/16 04:54:51;;;;;;;;;15.25;15.00;;;;;;;;5024919;28;51291;-56
2023/06/16 04:57:16;;;;;;;;;17.75;17.75;;;;;;;;5031473;28;51293;-56
2023/06/16 04:59:41;;;;;;;;;17.00;16.00;;;;;;;;5021739;28;51098;-56
2023/06/16 05:02:07;;;;;;;;;17.75;17.25;;;;;;;;5014155;28;51221;-56
2023/06/16 05:04:32;;;;;;;;;17.00;16.25;;;;;;;;5016253;28;51044;-56
2023/06/16 05:06:58;;;;;;;;;15.75;15.00;;;;;;;;5028712;28;51145;-56
2023/06/16 05:09:24;;;;;;;;;15.00;15.00;;;;;;;;5031915;28;52898;-56
2023/06/16 05:11:49;;;;;;;;;18.00;17.50;;;;;;;;5026726;28;51182;-56
2023/06/16 05:14:14;;;;;;;;;18.25;16.00;;;;;;;;5026008;28;50964;-55
2023/06/16 05:16:39;;;;;;;;;16.50;15.25;;;;;;;;5031469;28;51317;-56
2023/06/16 05:19:05;;;;;;;;;16.50;16.50;;;;;;;;5029260;28;52050;-56
2023/06/16 05:21:30;;;;;;;;;16.25;15.00;;;;;;;;5031678;28;51020;-57
2023/06/16 05:23:57;;;;;;;;;18.00;17.00;;;;;;;;5032195;28;51235;-56
2023/06/16 05:26:22;;;;;;;;;18.25;17.25;;;;;;;;5019559;28;51015;-56
2023/06/16 05:28:48;;;;;;;;;17.00;16.75;;;;;;;;5029136;28;51789;-56
2023/06/16 05:31:13;;;;;;;;;16.75;16.00;;;;;;;;5031480;28;50882;-56
2023/06/16 05:33:38;;;;;;;;;16.00;15.75;;;;;;;;5024223;28;51100;-56
2023/06/16 05:36:03;;;;;;;;;15.50;15.50;;;;;;;;5027403;28;51164;-56
2023/06/16 05:38:29;;;;;;;;;14.75;14.25;;;;;;;;5030519;28;50992;-55
2023/06/16 05:40:54;;;;;;;;;15.75;15.50;;;;;;;;5030305;28;50906;-55
2023/06/16 05:43:19;;;;;;;;;15.75;15.50;;;;;;;;5031730;28;50873;-57
2023/06/16 05:45:44;;;;;;;;;18.00;17.25;;;;;;;;5028558;28;50913;-56
2023/06/16 05:48:10;;;;;;;;;18.50;17.25;;;;;;;;5028919;28;51408;-56
2023/06/16 05:50:35;;;;;;;;;20.50;18.75;;;;;;;;5028401;28;51072;-56
2023/06/16 05:53:00;;;;;;;;;16.00;15.75;;;;;;;;5029922;28;50853;-57
2023/06/16 05:55:26;;;;;;;;;17.00;17.00;;;;;;;;5021843;28;51297;-55
2023/06/16 05:57:51;;;;;;;;;17.50;17.50;;;;;;;;5031601;28;52575;-55
2023/06/16 06:00:17;;;;;;;;;17.50;17.00;;;;;;;;5021943;28;51039;-55
2023/06/16 06:02:42;;;;;;;;;15.00;15.00;;;;;;;;5020491;28;51295;-54
2023/06/16 06:05:08;;;;;;;;;16.00;14.25;;;;;;;;5017558;28;53808;-57
2023/06/16 06:07:33;;;;;;;;;15.00;14.25;;;;;;;;5028898;28;51147;-56
2023/06/16 06:09:58;;;;;;;;;14.50;14.50;;;;;;;;5031658;28;51076;-56
2023/06/16 06:12:23;;;;;;;;;16.00;16.00;;;;;;;;5032904;28;51016;-57
2023/06/16 06:14:48;;;;;;;;;17.00;17.00;;;;;;;;5034045;28;51036;-60
2023/06/16 06:17:13;;;;;;;;;17.75;16.00;;;;;;;;5033060;28;52813;-57
2023/06/16 06:19:39;;;;;;;;;19.75;18.50;;;;;;;;5026582;28;51212;-56
2023/06/16 06:22:04;;;;;;;;;15.25;15.25;;;;;;;;5034142;28;50971;-56
2023/06/16 06:24:29;;;;;;;;;15.25;15.25;;;;;;;;5019223;28;51355;-56
2023/06/16 06:26:57;;;;;;;;;17.00;16.00;;;;;;;;5033063;28;51174;-55
2023/06/16 06:29:22;;;;;;;;;17.25;17.25;;;;;;;;5016243;28;50966;-55
2023/06/16 06:31:47;;;;;;;;;19.00;18.25;;;;;;;;5019669;28;51009;-56
2023/06/16 06:34:12;;;;;;;;;14.50;14.25;;;;;;;;5029301;28;51186;-55
2023/06/16 06:36:39;;;;;;;;;19.00;19.00;;;;;;;;5019599;28;51140;-56
2023/06/16 06:39:04;;;;;;;;;16.00;16.00;;;;;;;;5027127;28;51317;-55
2023/06/16 06:41:29;;;;;;;;;18.00;18.00;;;;;;;;5014750;28;50915;-56
2023/06/16 06:43:55;;;;;;;;;17.50;16.75;;;;;;;;5014549;28;51132;-55
2023/06/16 06:46:20;;;;;;;;;17.75;17.25;;;;;;;;5014263;28;51699;-55
2023/06/16 06:48:46;;;;;;;;;19.00;19.00;;;;;;;;5023272;28;51317;-55
2023/06/16 06:51:13;;;;;;;;;21.50;20.50;;;;;;;;5015876;28;50902;-55
2023/06/16 06:53:38;;;;;;;;;21.50;20.00;;;;;;;;5029823;28;51046;-55
2023/06/16 06:56:03;;;;;;;;;18.75;18.75;;;;;;;;5014278;28;52031;-54
2023/06/16 06:58:29;;;;;;;;;17.00;16.50;;;;;;;;5014446;28;51055;-55
2023/06/16 07:00:54;;;;;;;;;18.00;18.00;;;;;;;;5025166;28;50997;-53
2023/06/16 07:03:19;;;;;;;;;17.75;17.25;;;;;;;;5033796;28;51004;-53
2023/06/16 07:05:45;;;;;;;;;15.00;14.00;;;;;;;;5022009;28;52031;-52
2023/06/16 07:08:10;;;;;;;;;19.00;19.00;;;;;;;;5017111;28;51121;-51
2023/06/16 07:10:36;;;;;;;;;19.25;18.25;;;;;;;;5022295;28;51294;-52
2023/06/16 07:13:01;;;;;;;;;28.00;28.00;;;;;;;;5030970;28;51017;-53
2023/06/16 07:15:26;;;;;;;;;16.00;14.75;;;;;;;;5033307;28;52084;-51
2023/06/16 07:17:52;;;;;;;;;18.00;17.25;;;;;;;;5032897;28;50988;-52
2023/06/16 07:20:17;;;;;;;;;17.00;17.00;;;;;;;;5028142;28;51207;-54
2023/06/16 07:22:45;;;;;;;;;20.75;19.25;;;;;;;;5031684;28;51101;-54
2023/06/16 07:25:10;;;;;;;;;18.25;18.00;;;;;;;;5023836;28;52796;-51
2023/06/16 07:27:35;;;;;;;;;19.00;16.25;;;;;;;;5029127;28;50854;-50
2023/06/16 07:30:02;;;;;;;;;17.50;17.00;;;;;;;;5025123;28;51493;-53
2023/06/16 07:32:28;;;;;;;;;19.50;19.00;;;;;;;;5033444;28;50937;-53
2023/06/16 07:34:53;;;;;;;;;19.25;18.50;;;;;;;;5020057;28;52053;-53
2023/06/16 07:37:18;;;;;;;;;22.50;21.50;;;;;;;;5020175;28;51099;-52
2023/06/16 07:39:44;;;;;;;;;18.50;18.50;;;;;;;;5013418;28;51000;-53
2023/06/16 07:42:09;;;;;;;;;19.00;18.00;;;;;;;;5028595;28;50993;-52
2023/06/16 07:44:34;;;;;;;;;18.75;18.50;;;;;;;;5023773;28;52143;-52
2023/06/16 07:46:59;;;;;;;;;21.75;19.75;;;;;;;;5021309;28;51136;-53
2023/06/16 07:49:25;;;;;;;;;19.25;17.50;;;;;;;;5032242;28;50981;-53
2023/06/16 07:51:51;;;;;;;;;19.00;18.50;;;;;;;;5029391;28;51288;-52
2023/06/16 07:54:16;;;;;;;;;18.75;17.75;;;;;;;;5032833;28;51590;-51
2023/06/16 07:56:42;;;;;;;;;16.50;16.50;;;;;;;;5039314;28;50901;-50
2023/06/16 07:59:07;;;;;;;;;20.75;20.50;;;;;;;;5041009;28;51172;-53
2023/06/16 08:01:33;;;;;;;;;24.00;22.75;;;;;;;;5027230;28;51138;-51
2023/06/16 08:03:58;;;;;;;;;19.00;19.00;;;;;;;;5027244;28;51108;-51
2023/06/16 08:06:23;;;;;;;;;21.50;20.00;;;;;;;;5046915;28;51049;-51
2023/06/16 08:08:49;;;;;;;;;20.00;18.50;;;;;;;;5039270;28;51016;-50
2023/06/16 08:11:14;;;;;;;;;20.75;19.50;;;;;;;;5022164;28;50842;-51
2023/06/16 08:13:40;;;;;;;;;20.25;19.25;;;;;;;;5031679;28;51630;-53
2023/06/16 08:16:05;;;;;;;;;15.25;15.25;;;;;;;;5026052;28;51126;-52
2023/06/16 08:18:31;;;;;;;;;21.75;21.75;;;;;;;;5039010;28;51049;-53
2023/06/16 08:20:56;;;;;;;;;16.00;16.00;;;;;;;;5027255;28;51436;-54
2023/06/16 08:23:21;;;;;;;;;17.25;17.00;;;;;;;;5019329;28;52056;-54
2023/06/16 08:25:47;;;;;;;;;14.75;14.25;;;;;;;;5030216;28;51109;-51
2023/06/16 08:28:13;;;;;;;;;23.75;21.75;;;;;;;;5030607;28;51202;-53
2023/06/16 08:30:38;;;;;;;;;21.00;20.50;;;;;;;;5017965;28;51310;-50
2023/06/16 08:33:05;;;;;;;;;19.50;19.50;;;;;;;;5037578;28;52677;-51
2023/06/16 08:35:30;;;;;;;;;16.00;16.00;;;;;;;;5026306;28;50928;-52
2023/06/16 08:37:55;;;;;;;;;21.50;20.50;;;;;;;;5019253;28;51069;-51
2023/06/16 08:40:21;;;;;;;;;17.75;17.50;;;;;;;;5016806;28;51375;-53
2023/06/16 08:42:46;;;;;;;;;15.50;15.00;;;;;;;;5031809;28;50998;-53
2023/06/16 08:45:12;;;;;;;;;21.25;20.25;;;;;;;;5021200;28;51122;-53
2023/06/16 08:47:40;;;;;;;;;18.75;17.00;;;;;;;;5015491;28;51096;-53
2023/06/16 08:50:07;;;;;;;;;15.25;15.25;;;;;;;;5037171;28;51298;-53
2023/06/16 08:52:34;;;;;;;;;17.25;16.00;;;;;;;;5024302;28;51654;-53
2023/06/16 08:55:01;;;;;;;;;14.00;13.00;;;;;;;;5030823;28;51055;-53
2023/06/16 08:57:27;;;;;;;;;19.00;18.25;;;;;;;;5037334;28;51130;-53
2023/06/16 08:59:54;;;;;;;;;15.25;14.25;;;;;;;;5025971;28;51159;-52
2023/06/16 09:02:20;;;;;;;;;16.75;16.25;;;;;;;;5018263;28;51159;-54
2023/06/16 09:04:45;;;;;;;;;13.25;13.25;;;;;;;;5020779;28;51689;-63
2023/06/16 09:07:11;;;;;;;;;19.00;18.25;;;;;;;;5018444;28;51149;-63
2023/06/16 09:09:37;;;;;;;;;14.25;14.25;;;;;;;;5032125;28;50911;-63
2023/06/16 09:12:03;;;;;;;;;11.75;11.50;;;;;;;;5014770;28;51050;-62
2023/06/16 09:14:33;;;;;;;;;11.50;11.25;;;;;;;;5017403;28;50960;-63
2023/06/16 09:17:01;;;;;;;;;13.75;13.75;;;;;;;;5014715;28;50946;-59
2023/06/16 09:19:26;;;;;;;;;13.75;13.75;;;;;;;;5032735;28;51377;-60
2023/06/16 09:21:54;;;;;;;;;12.00;12.00;;;;;;;;5031422;28;55002;-58
2023/06/16 09:24:23;;;;;;;;;13.25;12.25;;;;;;;;5032255;28;51130;-54
2023/06/16 09:26:52;;;;;;;;;12.25;12.25;;;;;;;;5021941;28;51306;-53
2023/06/16 09:29:25;;;;;;;;;13.50;13.50;;;;;;;;5028150;28;51262;-54
2023/06/16 09:31:50;;;;;;;;;11.75;11.50;;;;;;;;5029685;28;52785;-53
2023/06/16 09:34:16;;;;;;;;;11.75;11.75;;;;;;;;5019456;28;50941;-52
2023/06/16 09:36:41;;;;;;;;;13.75;13.50;;;;;;;;5034980;28;51060;-54
2023/06/16 09:39:07;;;;;;;;;14.75;11.50;;;;;;;;5016576;28;51264;-53
2023/06/16 09:41:36;;;;;;;;;14.00;13.75;;;;;;;;5014980;28;51813;-53
2023/06/16 09:44:02;;;;;;;;;14.75;14.75;;;;;;;;5014860;28;51046;-53
2023/06/16 09:46:28;;;;;;;;;13.25;13.00;;;;;;;;5017326;28;50847;-54
2023/06/16 09:48:53;;;;;;;;;12.00;11.50;;;;;;;;5040960;28;51135;-52
2023/06/16 09:51:21;;;;;;;;;14.25;14.25;;;;;;;;5015264;28;50946;-53
2023/06/16 09:53:47;;;;;;;;;14.00;13.00;;;;;;;;5014996;28;51222;-53
2023/06/16 09:56:18;;;;;;;;;16.00;15.50;;;;;;;;5015036;28;51018;-54
2023/06/16 09:58:44;;;;;;;;;12.00;10.50;;;;;;;;5015108;28;50873;-53
2023/06/16 10:01:10;;;;;;;;;13.25;13.25;;;;;;;;5013524;28;51896;-52
2023/06/16 10:03:37;;;;;;;;;17.25;16.50;;;;;;;;5014300;28;50876;-52
2023/06/16 10:06:05;;;;;;;;;12.50;12.00;;;;;;;;5012974;28;51177;-55
2023/06/16 10:08:30;;;;;;;;;11.25;11.25;;;;;;;;5020181;28;51194;-54
2023/06/16 10:10:56;;;;;;;;;15.50;13.75;;;;;;;;5033837;28;51110;-53
2023/06/16 10:13:22;;;;;;;;;16.25;16.00;;;;;;;;5014585;28;51033;-52
2023/06/16 10:15:48;;;;;;;;;14.75;13.00;;;;;;;;5014447;28;51203;-53
2023/06/16 10:18:16;;;;;;;;;12.25;12.25;;;;;;;;5014878;28;50846;-51
2023/06/16 10:20:42;;;;;;;;;12.75;12.75;;;;;;;;5014180;28;51796;-52
2023/06/16 10:23:07;;;;;;;;;12.25;11.50;;;;;;;;5022451;28;51030;-50
2023/06/16 10:25:33;;;;;;;;;12.00;11.75;;;;;;;;5033922;28;50960;-53
2023/06/16 10:28:01;;;;;;;;;21.00;17.75;;;;;;;;5034554;28;51154;-53
2023/06/16 10:30:28;;;;;;;;;10.50;9.75;;;;;;;;5018456;28;51871;-53
2023/06/16 10:32:56;;;;;;;;;11.50;11.50;;;;;;;;5014421;28;50966;-54
2023/06/16 10:35:22;;;;;;;;;13.75;13.25;;;;;;;;5013123;28;51129;-53
2023/06/16 10:37:54;;;;;;;;;15.25;14.50;;;;;;;;5013617;28;51081;-54
2023/06/16 10:40:21;;;;;;;;;14.00;12.25;;;;;;;;5014018;28;52069;-55
2023/06/16 10:42:46;;;;;;;;;13.00;12.25;;;;;;;;5027556;28;51188;-53
2023/06/16 10:45:26;;;;;;;;;14.50;14.25;;;;;;;;5014078;28;51009;-52
2023/06/16 10:47:55;;;;;;;;;13.00;12.25;;;;;;;;5016137;28;50829;-54
2023/06/16 10:50:28;;;;;;;;;20.75;16.75;;;;;;;;5033377;28;52564;-53
2023/06/16 10:52:54;;;;;;;;;12.00;12.00;;;;;;;;5026352;28;51014;-55
2023/06/16 10:55:22;;;;;;;;;14.00;13.50;;;;;;;;5027834;28;50903;-54
2023/06/16 10:57:56;;;;;;;;;13.50;13.00;;;;;;;;5034216;28;51752;-53
2023/06/16 11:00:25;;;;;;;;;18.00;16.00;;;;;;;;5033065;28;52124;-54
2023/06/16 11:02:52;;;;;;;;;14.75;14.00;;;;;;;;5033170;28;50992;-54
2023/06/16 11:05:20;;;;;;;;;15.50;15.50;;;;;;;;5033418;28;50820;-55
2023/06/16 11:08:05;;;;;;;;;13.50;12.50;;;;;;;;5028482;28;51220;-53
2023/06/16 11:10:54;;;;;;;;;15.50;14.00;;;;;;;;5019224;28;51379;-54
2023/06/16 11:13:23;;;;;;;;;12.50;12.50;;;;;;;;5007827;28;51062;-54
2023/06/16 11:15:48;;;;;;;;;18.50;18.00;;;;;;;;5013187;28;50870;-54
2023/06/16 11:18:14;;;;;;;;;14.25;14.25;;;;;;;;5013605;28;51405;-52
2023/06/16 11:20:39;;;;;;;;;12.50;12.00;;;;;;;;5013183;28;52991;-57
2023/06/16 11:23:05;;;;;;;;;15.50;15.25;;;;;;;;5013350;28;50946;-59
2023/06/16 11:25:30;;;;;;;;;13.00;13.00;;;;;;;;5013370;28;51003;-59
2023/06/16 11:27:56;;;;;;;;;15.00;13.25;;;;;;;;5023440;28;50911;-59
2023/06/16 11:30:21;;;;;;;;;16.25;15.00;;;;;;;;5032789;28;53148;-59
2023/06/16 11:32:47;;;;;;;;;14.75;14.75;;;;;;;;5033085;28;50945;-58
2023/06/16 11:35:13;;;;;;;;;14.25;14.25;;;;;;;;5033043;28;51048;-60
2023/06/16 11:37:48;;;;;;;;;14.25;13.50;;;;;;;;5033217;28;51278;-59
2023/06/16 11:40:24;;;;;;;;;13.50;13.25;;;;;;;;5032945;28;51690;-60
2023/06/16 11:43:16;;;;;;;;;15.25;15.25;;;;;;;;5023494;28;51070;-60
2023/06/16 11:45:41;;;;;;;;;15.75;15.00;;;;;;;;5011651;28;50932;-59
2023/06/16 11:48:08;;;;;;;;;14.25;14.25;;;;;;;;5012157;28;51192;-60
2023/06/16 11:50:34;;;;;;;;;14.25;14.00;;;;;;;;5028792;28;52880;-58
2023/06/16 11:53:00;;;;;;;;;17.00;16.00;;;;;;;;5015526;28;51008;-59
2023/06/16 11:55:25;;;;;;;;;16.00;14.25;;;;;;;;5015247;28;51048;-58
2023/06/16 11:57:50;;;;;;;;;14.75;14.75;;;;;;;;5012779;28;52175;-58
2023/06/16 12:00:16;;;;;;;;;19.75;18.75;;;;;;;;5012456;28;52873;-59
2023/06/16 12:02:43;;;;;;;;;15.75;15.25;;;;;;;;5027583;28;51117;-58
2023/06/16 12:05:12;;;;;;;;;15.75;15.75;;;;;;;;5031303;28;51024;-59
2023/06/16 12:07:39;;;;;;;;;21.00;19.25;;;;;;;;5028313;28;51180;-60
2023/06/16 12:10:05;;;;;;;;;12.50;12.50;;;;;;;;5031699;28;51129;-58
2023/06/16 12:12:30;;;;;;;;;13.50;13.50;;;;;;;;5016298;28;51010;-59
2023/06/16 12:14:59;;;;;;;;;16.00;15.50;;;;;;;;5012433;28;51087;-59
2023/06/16 12:17:25;;;;;;;;;14.00;14.00;;;;;;;;5012484;28;51327;-58
2023/06/16 12:19:51;;;;;;;;;13.50;13.25;;;;;;;;5030767;28;51036;-57
2023/06/16 12:22:16;;;;;;;;;14.00;14.00;;;;;;;;5031902;28;51240;-58
2023/06/16 12:24:41;;;;;;;;;17.25;16.75;;;;;;;;5032195;28;51097;-59
2023/06/16 12:27:06;;;;;;;;;13.75;13.00;;;;;;;;5019785;28;51299;-59
2023/06/16 12:29:32;;;;;;;;;28.25;24.25;;;;;;;;5030716;28;52478;-58
2023/06/16 12:31:59;;;;;;;;;18.00;17.00;;;;;;;;5019428;28;51132;-58
2023/06/16 12:34:25;;;;;;;;;16.00;14.50;;;;;;;;5024876;28;50999;-58
2023/06/16 12:36:52;;;;;;;;;15.50;14.75;;;;;;;;5031965;28;51187;-58
2023/06/16 12:39:17;;;;;;;;;13.25;13.25;;;;;;;;5019445;28;50973;-58
2023/06/16 12:41:59;;;;;;;;;15.25;14.75;;;;;;;;5011517;28;50859;-59
2023/06/16 12:44:39;;;;;;;;;16.75;14.50;;;;;;;;5011644;28;50969;-58
2023/06/16 12:47:05;;;;;;;;;14.75;14.75;;;;;;;;5012210;28;50865;-58
2023/06/16 12:49:30;;;;;;;;;14.50;14.50;;;;;;;;5022065;28;51880;-59
2023/06/16 12:51:55;;;;;;;;;16.25;16.00;;;;;;;;5011855;28;50907;-58
2023/06/16 12:54:20;;;;;;;;;17.75;17.50;;;;;;;;5012123;28;50850;-58
2023/06/16 12:56:46;;;;;;;;;15.50;15.25;;;;;;;;5012072;28;51134;-57
2023/06/16 12:59:11;;;;;;;;;15.75;15.75;;;;;;;;5010397;28;51114;-58
2023/06/16 13:01:36;;;;;;;;;16.50;15.00;;;;;;;;5011634;28;51254;-59
2023/06/16 13:04:01;;;;;;;;;19.75;19.00;;;;;;;;5011641;28;50954;-58
2023/06/16 13:06:27;;;;;;;;;15.75;13.75;;;;;;;;5012302;28;51038;-59
2023/06/16 13:08:52;;;;;;;;;16.50;16.00;;;;;;;;5019401;28;53444;-59
2023/06/16 13:11:17;;;;;;;;;20.50;17.25;;;;;;;;5023160;28;51001;-59
2023/06/16 13:13:42;;;;;;;;;14.50;14.00;;;;;;;;5011839;28;51072;-58
2023/06/16 13:16:08;;;;;;;;;14.50;14.50;;;;;;;;5011471;28;51612;-58
2023/06/16 13:18:33;;;;;;;;;16.00;15.50;;;;;;;;5011442;28;51081;-59
2023/06/16 13:20:59;;;;;;;;;15.00;14.75;;;;;;;;5012060;28;51023;-59
2023/06/16 13:23:24;;;;;;;;;16.50;16.50;;;;;;;;5016028;28;51131;-59
2023/06/16 13:25:50;;;;;;;;;14.25;14.25;;;;;;;;5014227;28;50969;-59
2023/06/16 13:28:15;;;;;;;;;15.25;15.00;;;;;;;;5020936;28;50938;-59
2023/06/16 13:30:40;;;;;;;;;18.50;17.50;;;;;;;;5027799;28;51059;-58
2023/06/16 13:33:05;;;;;;;;;14.50;14.25;;;;;;;;5012020;28;51223;-59
2023/06/16 13:35:31;;;;;;;;;16.25;16.25;;;;;;;;5011756;28;51191;-59
2023/06/16 13:37:56;;;;;;;;;15.50;15.25;;;;;;;;5011319;28;51053;-59
2023/06/16 13:40:21;;;;;;;;;14.25;14.25;;;;;;;;5010154;28;50981;-59
2023/06/16 13:42:47;;;;;;;;;15.00;15.00;;;;;;;;5011517;28;50983;-59
2023/06/16 13:45:12;;;;;;;;;14.75;14.75;;;;;;;;5010981;28;51263;-59
2023/06/16 13:47:37;;;;;;;;;12.00;12.00;;;;;;;;5011150;28;50943;-59
2023/06/16 13:50:02;;;;;;;;;14.75;14.75;;;;;;;;5020977;28;51037;-58
2023/06/16 13:52:28;;;;;;;;;18.25;17.75;;;;;;;;5018846;28;50889;-59
2023/06/16 13:54:53;;;;;;;;;17.00;15.00;;;;;;;;5023086;28;51418;-59
2023/06/16 13:57:19;;;;;;;;;25.00;23.75;;;;;;;;5011381;28;52087;-59
2023/06/16 13:59:44;;;;;;;;;16.50;16.00;;;;;;;;5010919;28;51026;-59
2023/06/16 14:02:09;;;;;;;;;15.00;14.00;;;;;;;;5010922;28;51073;-58
2023/06/16 14:04:34;;;;;;;;;13.00;13.00;;;;;;;;5011092;28;50891;-58
2023/06/16 14:07:00;;;;;;;;;15.00;15.00;;;;;;;;5011100;28;50982;-58
2023/06/16 14:09:25;;;;;;;;;14.50;14.25;;;;;;;;5022544;28;50936;-59
2023/06/16 14:11:50;;;;;;;;;18.25;18.25;;;;;;;;5023907;28;51000;-58